Time;durP1;ratioP1;P1;durP2;ratioP2;P2;SDS_P1;SDS_P2;PMS_P1;PMS_P2;Temp;Humidity;BMP_temperature;BMP_pressure;BME280_temperature;BME280_humidity;BME280_pressure;Samples;Min_cycle;Max_cycle;Signal;HPM_P1;HPM_P2
2024/02/09 00:01:19;;;;;;;22.92;6.45;;;;;;;7.85;100.00;98645.94;4770927;30;20059;-70
2024/02/09 00:04:08;;;;;;;18.20;5.70;;;;;;;7.87;100.00;98641.03;4760182;30;20109;-69
2024/02/09 00:06:56;;;;;;;16.75;5.60;;;;;;;7.90;100.00;98634.97;4770654;30;20074;-71
2024/02/09 00:09:46;;;;;;;20.90;5.95;;;;;;;7.92;100.00;98642.81;4773472;30;20510;-71
2024/02/09 00:12:34;;;;;;;19.40;5.63;;;;;;;7.93;100.00;98637.06;4772953;30;20056;-71
2024/02/09 00:15:22;;;;;;;14.63;5.40;;;;;;;7.94;100.00;98630.56;4771419;30;20066;-70
2024/02/09 00:18:11;;;;;;;14.52;5.28;;;;;;;7.97;100.00;98627.22;4771980;30;20415;-71
2024/02/09 00:20:59;;;;;;;17.35;6.28;;;;;;;7.96;100.00;98627.53;4767590;30;20048;-70
2024/02/09 00:23:48;;;;;;;13.27;4.93;;;;;;;7.98;100.00;98626.13;4758347;30;20106;-71
2024/02/09 00:26:36;;;;;;;16.75;5.28;;;;;;;8.07;100.00;98620.78;4773131;30;20056;-71
2024/02/09 00:29:24;;;;;;;19.67;6.18;;;;;;;8.09;100.00;98605.81;4755942;30;20052;-71
2024/02/09 00:32:14;;;;;;;16.80;5.00;;;;;;;8.08;100.00;98597.97;4756747;30;20335;-71
2024/02/09 00:35:04;;;;;;;17.30;5.88;;;;;;;8.13;100.00;98592.44;4756241;30;20067;-70
2024/02/09 00:37:55;;;;;;;17.88;5.57;;;;;;;8.15;100.00;98586.69;4760565;30;20509;-70
2024/02/09 00:40:43;;;;;;;17.52;5.88;;;;;;;8.15;100.00;98576.66;4772778;29;20051;-70
2024/02/09 00:43:32;;;;;;;16.08;5.40;;;;;;;8.16;100.00;98578.25;4773472;30;20048;-69
2024/02/09 00:46:21;;;;;;;17.58;5.72;;;;;;;8.13;100.00;98567.22;4773788;30;20517;-69
2024/02/09 00:49:10;;;;;;;14.75;5.28;;;;;;;8.10;100.00;98574.88;4771608;30;20043;-72
2024/02/09 00:52:00;;;;;;;16.70;4.70;;;;;;;8.13;100.00;98567.22;4755839;30;20050;-69
2024/02/09 00:54:50;;;;;;;14.43;4.47;;;;;;;8.16;100.00;98555.78;4757972;29;20055;-71
2024/02/09 00:57:40;;;;;;;17.02;5.40;;;;;;;8.15;100.00;98562.28;4773586;30;20047;-70
2024/02/09 01:00:30;;;;;;;14.48;4.70;;;;;;;8.16;100.00;98551.13;4773633;30;20077;-70
2024/02/09 01:03:20;;;;;;;14.50;4.80;;;;;;;8.17;100.00;98546.50;4742791;30;20055;-70
2024/02/09 01:06:08;;;;;;;15.30;4.65;;;;;;;8.16;100.00;98545.72;4763380;30;20056;-70
2024/02/09 01:08:56;;;;;;;14.52;4.68;;;;;;;8.23;100.00;98542.59;4772591;30;20062;-70
2024/02/09 01:11:45;;;;;;;14.55;5.15;;;;;;;8.23;100.00;98535.22;4760102;30;20094;-68
2024/02/09 02:44:45;;;;;;;18.45;4.70;;;;;;;8.40;100.00;98404.34;4774090;30;20499;-70
2024/02/09 02:47:35;;;;;;;12.27;4.13;;;;;;;8.42;100.00;98398.56;4773399;29;20044;-70
2024/02/09 03:05:57;;;;;;;13.57;4.68;;;;;;;8.44;100.00;98372.75;4771297;30;20504;-71
2024/02/09 03:08:45;;;;;;;16.83;4.35;;;;;;;8.43;100.00;98360.28;4759825;30;20087;-69
2024/02/09 03:11:36;;;;;;;12.98;4.15;;;;;;;8.46;100.00;98364.28;4771660;30;20050;-70
2024/02/09 03:14:27;;;;;;;19.15;5.00;;;;;;;8.46;100.00;98356.13;4770192;30;20128;-71
2024/02/09 03:17:16;;;;;;;11.93;4.10;;;;;;;8.46;100.00;98358.84;4746926;30;20071;-70
2024/02/09 03:20:05;;;;;;;11.48;4.20;;;;;;;8.48;100.00;98345.78;4771852;30;20102;-70
2024/02/09 03:22:53;;;;;;;9.95;3.88;;;;;;;8.50;100.00;98354.41;4771056;30;20051;-71
2024/02/09 03:25:41;;;;;;;15.77;3.97;;;;;;;8.50;100.00;98346.25;4771821;30;20509;-70
2024/02/09 03:28:29;;;;;;;14.30;4.18;;;;;;;8.53;100.00;98343.69;4772320;30;20052;-70
2024/02/09 03:31:18;;;;;;;10.85;3.45;;;;;;;8.58;100.00;98344.69;4764574;30;20047;-69
2024/02/09 03:34:06;;;;;;;7.70;3.28;;;;;;;8.58;100.00;98344.69;4772379;29;20048;-71
2024/02/09 03:36:55;;;;;;;12.45;3.40;;;;;;;8.53;100.00;98341.00;4766512;30;20058;-71
2024/02/09 03:39:44;;;;;;;11.50;3.42;;;;;;;8.59;100.00;98335.44;4768586;30;20502;-70
2024/02/09 03:42:32;;;;;;;10.32;3.65;;;;;;;8.57;100.00;98332.25;4757248;30;20513;-71
2024/02/09 03:45:20;;;;;;;8.55;3.40;;;;;;;8.65;100.00;98334.94;4759495;30;20444;-71
2024/02/09 03:48:09;;;;;;;9.32;3.20;;;;;;;8.63;100.00;98325.53;4772460;29;20396;-71
2024/02/09 03:50:58;;;;;;;9.18;2.90;;;;;;;8.62;100.00;98330.16;4775252;30;20039;-71
2024/02/09 03:53:46;;;;;;;8.88;3.50;;;;;;;8.61;100.00;98319.63;4773788;30;20074;-71
2024/02/09 03:56:34;;;;;;;12.55;3.10;;;;;;;8.61;100.00;98311.47;4772370;30;20165;-71
2024/02/09 03:59:22;;;;;;;9.57;3.00;;;;;;;8.62;100.00;98319.31;4762882;30;20049;-71
2024/02/09 04:02:14;;;;;;;7.03;2.78;;;;;;;8.72;100.00;98307.34;4754779;30;20075;-71
2024/02/09 04:05:03;;;;;;;9.48;3.00;;;;;;;8.71;100.00;98313.91;4757298;30;20342;-71
2024/02/09 04:07:52;;;;;;;7.88;2.70;;;;;;;8.74;100.00;98310.53;4771006;30;20501;-70
2024/02/09 04:10:41;;;;;;;8.70;3.00;;;;;;;8.70;100.00;98309.56;4757577;30;20508;-71
2024/02/09 04:13:31;;;;;;;8.55;2.83;;;;;;;8.68;100.00;98306.38;4744517;30;20048;-70
2024/02/09 04:16:23;;;;;;;7.80;2.63;;;;;;;8.72;100.00;98304.63;4756921;30;20130;-71
2024/02/09 04:19:14;;;;;;;6.22;2.67;;;;;;;8.71;100.00;98303.84;4771129;30;20063;-70
2024/02/09 04:22:05;;;;;;;6.30;2.65;;;;;;;8.77;100.00;98288.19;4773309;30;20051;-70
2024/02/09 04:24:53;;;;;;;8.73;2.78;;;;;;;8.81;100.00;98300.00;4761945;30;20043;-71
2024/02/09 04:27:42;;;;;;;7.13;2.58;;;;;;;8.88;100.00;98299.53;4772059;30;20083;-70
2024/02/09 04:30:30;;;;;;;6.90;2.58;;;;;;;8.90;100.00;98287.25;4774745;30;20193;-71
2024/02/09 04:33:18;;;;;;;7.80;2.88;;;;;;;8.85;100.00;98287.41;4772665;30;20052;-71
2024/02/09 04:36:07;;;;;;;7.20;2.40;;;;;;;8.86;100.00;98299.84;4771991;30;20071;-71
2024/02/09 04:38:55;;;;;;;5.75;2.60;;;;;;;8.84;100.00;98298.56;4755621;30;20056;-71
2024/02/09 04:41:46;;;;;;;8.00;2.80;;;;;;;8.82;100.00;98293.44;4757824;30;20079;-71
2024/02/09 04:44:35;;;;;;;5.38;2.60;;;;;;;8.83;100.00;98297.00;4768403;30;20143;-71
2024/02/09 04:47:23;;;;;;;3.58;2.50;;;;;;;8.84;100.00;98298.56;4775773;29;20052;-70
2024/02/09 04:50:12;;;;;;;4.05;2.33;;;;;;;8.82;100.00;98301.59;4763465;29;20489;-71
2024/02/09 04:53:00;;;;;;;5.10;2.20;;;;;;;8.84;100.00;98291.22;4760927;30;20051;-69
2024/02/09 04:55:50;;;;;;;5.82;2.20;;;;;;;8.87;100.00;98296.00;4773900;29;20047;-71
2024/02/09 04:58:39;;;;;;;5.28;2.47;;;;;;;8.88;100.00;98291.41;4748987;30;20162;-71
2024/02/09 05:01:32;;;;;;;5.80;2.50;;;;;;;8.87;100.00;98284.34;4774044;30;20047;-71
2024/02/09 05:04:20;;;;;;;5.70;2.95;;;;;;;8.87;100.00;98282.44;4772471;30;20055;-71
2024/02/09 05:07:10;;;;;;;6.45;2.60;;;;;;;8.89;100.00;98277.47;4773267;30;20132;-71
2024/02/09 05:09:58;;;;;;;5.53;2.40;;;;;;;8.89;100.00;98274.78;4774045;30;20063;-71
2024/02/09 05:12:47;;;;;;;5.85;2.70;;;;;;;8.95;100.00;98275.44;4772467;29;20368;-69
2024/02/09 05:15:37;;;;;;;6.00;2.40;;;;;;;8.98;100.00;98274.00;4770910;30;20044;-70
2024/02/09 05:18:27;;;;;;;6.38;2.40;;;;;;;8.96;100.00;98266.94;4781677;30;20059;-70
2024/02/09 05:21:16;;;;;;;5.28;2.10;;;;;;;8.99;100.00;98268.22;4785686;30;20055;-71
2024/02/09 05:24:04;;;;;;;6.70;2.50;;;;;;;9.01;100.00;98271.41;4772489;30;20052;-70
2024/02/09 05:26:53;;;;;;;4.07;2.20;;;;;;;8.99;100.00;98272.84;4760179;30;20138;-69
2024/02/09 05:29:41;;;;;;;8.35;2.40;;;;;;;9.02;100.00;98264.06;4774085;30;20055;-71
2024/02/09 05:32:32;;;;;;;6.40;2.67;;;;;;;9.04;100.00;98259.09;4769938;30;20427;-65
2024/02/09 05:35:20;;;;;;;5.63;2.25;;;;;;;9.03;100.00;98242.03;4771898;30;20063;-65
2024/02/09 05:38:08;;;;;;;5.93;2.17;;;;;;;9.07;100.00;98242.97;4776383;30;20051;-70
2024/02/09 05:40:57;;;;;;;5.35;2.60;;;;;;;9.05;100.00;98234.34;4781717;30;20109;-66
2024/02/09 05:43:52;;;;;;;6.72;2.33;;;;;;;9.08;100.00;98235.63;4786375;30;20101;-68
2024/02/09 05:46:40;;;;;;;5.33;2.17;;;;;;;9.04;100.00;98237.38;4779350;30;20071;-71
2024/02/09 05:49:28;;;;;;;7.30;2.30;;;;;;;9.08;100.00;98232.91;4754329;30;20306;-67
2024/02/09 05:52:16;;;;;;;6.05;2.58;;;;;;;9.07;100.00;98239.47;4752978;30;20066;-68
2024/02/09 05:55:08;;;;;;;3.13;2.08;;;;;;;9.07;100.00;98247.63;4755145;30;20115;-66
2024/02/09 05:57:58;;;;;;;5.60;2.40;;;;;;;9.06;100.00;98240.56;4764274;30;20131;-66
2024/02/09 06:00:46;;;;;;;4.38;2.20;;;;;;;9.04;100.00;98231.94;4768527;29;20043;-67
2024/02/09 06:03:34;;;;;;;6.28;2.50;;;;;;;9.00;100.00;98241.88;4770230;30;20039;-65
2024/02/09 06:06:23;;;;;;;3.72;2.15;;;;;;;8.98;100.00;98233.25;4770327;30;20056;-67
2024/02/09 06:09:11;;;;;;;5.13;2.15;;;;;;;8.96;100.00;98236.28;4771211;30;20075;-67
2024/02/09 06:12:00;;;;;;;7.55;2.42;;;;;;;8.99;100.00;98237.56;4769934;30;20135;-68
2024/02/09 06:14:49;;;;;;;5.43;2.50;;;;;;;9.01;100.00;98238.03;4780621;30;20059;-66
2024/02/09 06:17:41;;;;;;;4.15;2.10;;;;;;;9.00;100.00;98228.31;4766894;30;20533;-67
2024/02/09 06:20:30;;;;;;;6.03;2.00;;;;;;;8.99;100.00;98224.75;4766685;30;20093;-68
2024/02/09 06:23:18;;;;;;;5.07;2.42;;;;;;;8.96;100.00;98231.63;4769200;30;20052;-67
2024/02/09 06:26:10;;;;;;;6.05;2.50;;;;;;;8.99;100.00;98234.84;4769310;30;20090;-68
2024/02/09 06:28:58;;;;;;;8.18;2.60;;;;;;;8.96;100.00;98230.84;4771300;30;20062;-67
2024/02/09 06:31:47;;;;;;;5.70;2.10;;;;;;;8.97;100.00;98235.16;4764391;30;20055;-67
2024/02/09 06:34:35;;;;;;;5.57;2.20;;;;;;;8.99;100.00;98230.19;4770741;30;20432;-68
2024/02/09 06:37:23;;;;;;;6.75;2.40;;;;;;;8.98;100.00;98234.03;4769803;30;20047;-67
2024/02/09 06:40:13;;;;;;;4.55;2.53;;;;;;;8.96;100.00;98230.84;4756992;30;20050;-67
2024/02/09 06:43:02;;;;;;;6.25;2.13;;;;;;;8.99;100.00;98232.13;4770035;30;20044;-66
2024/02/09 06:45:50;;;;;;;6.72;2.20;;;;;;;8.98;100.00;98241.41;4770663;30;20140;-67
2024/02/09 06:48:38;;;;;;;4.40;2.05;;;;;;;8.98;100.00;98238.69;4770349;30;20047;-67
2024/02/09 06:51:26;;;;;;;5.03;2.28;;;;;;;8.99;100.00;98245.69;4771781;29;20165;-67
2024/02/09 06:54:15;;;;;;;9.30;2.95;;;;;;;8.99;100.00;98242.97;4770096;30;20526;-68
2024/02/09 06:57:03;;;;;;;4.32;2.33;;;;;;;9.03;100.00;98241.22;4770130;30;20052;-67
2024/02/09 06:59:53;;;;;;;9.85;2.42;;;;;;;9.00;100.00;98239.16;4769425;30;20100;-67
2024/02/09 07:02:42;;;;;;;9.68;2.78;;;;;;;8.95;100.00;98240.13;4769011;30;20075;-68
2024/02/09 07:05:30;;;;;;;10.80;3.30;;;;;;;8.90;100.00;98241.09;4742272;30;20071;-67
2024/02/09 07:08:30;;;;;;;7.78;2.88;;;;;;;8.87;100.00;98238.97;4774016;30;20185;-67
2024/02/09 07:11:19;;;;;;;11.18;3.03;;;;;;;8.86;100.00;98231.97;4774449;29;20048;-67
2024/02/09 07:14:07;;;;;;;6.25;2.15;;;;;;;9.01;100.00;98238.03;4770025;30;20082;-67
2024/02/09 07:16:55;;;;;;;6.85;2.78;;;;;;;9.08;100.00;98239.13;4769660;29;20108;-66
2024/02/09 07:19:44;;;;;;;12.65;2.60;;;;;;;9.08;100.00;98235.63;4756834;30;20558;-68
2024/02/09 07:22:35;;;;;;;7.00;2.88;;;;;;;9.14;100.00;98235.16;4770129;30;20071;-66
2024/02/09 07:25:23;;;;;;;9.45;3.00;;;;;;;9.18;100.00;98244.22;4773900;30;20048;-67
2024/02/09 07:28:13;;;;;;;5.53;2.38;;;;;;;9.22;100.00;98241.69;4770639;30;20055;-67
2024/02/09 07:31:04;;;;;;;7.80;2.75;;;;;;;9.21;100.00;98248.22;4111698;30;10001383;-68
2024/02/09 07:33:52;;;;;;;6.70;2.15;;;;;;;9.24;100.00;98253.03;4769985;30;20497;-66
2024/02/09 07:36:40;;;;;;;4.72;2.22;;;;;;;9.35;100.00;98248.81;4770384;30;20064;-66
2024/02/09 07:39:29;;;;;;;7.38;2.50;;;;;;;9.37;100.00;98245.81;4755837;30;20043;-67
2024/02/09 07:42:24;;;;;;;6.25;2.42;;;;;;;9.34;100.00;98247.25;4775812;30;20043;-66
2024/02/09 07:45:15;;;;;;;7.07;2.60;;;;;;;9.37;100.00;98238.44;4768737;30;20040;-67
2024/02/09 07:48:05;;;;;;;6.05;2.60;;;;;;;9.34;100.00;98239.09;4769605;30;20516;-66
2024/02/09 07:50:53;;;;;;;4.28;2.25;;;;;;;9.36;100.00;98242.28;4770613;30;20124;-66
2024/02/09 07:53:41;;;;;;;8.73;2.75;;;;;;;9.37;100.00;98252.03;4768890;30;20570;-66
2024/02/09 07:56:31;;;;;;;8.23;2.25;;;;;;;9.38;100.00;98244.69;4739787;30;20426;-67
2024/02/09 07:59:20;;;;;;;5.07;2.30;;;;;;;9.39;100.00;98243.56;4757233;30;20465;-67
2024/02/09 08:02:08;;;;;;;6.72;2.40;;;;;;;9.39;100.00;98244.34;4769564;29;20055;-68
2024/02/09 08:04:56;;;;;;;4.95;1.83;;;;;;;9.56;100.00;98245.44;4768473;30;20518;-68
2024/02/09 08:07:48;;;;;;;4.97;2.05;;;;;;;9.52;100.00;98250.69;4769520;30;20287;-65
2024/02/09 08:10:36;;;;;;;7.05;2.83;;;;;;;9.47;100.00;98250.09;4776392;30;20087;-66
2024/02/09 08:13:24;;;;;;;6.90;2.70;;;;;;;9.55;100.00;98246.56;4776423;30;20105;-66
2024/02/09 08:16:12;;;;;;;4.43;2.17;;;;;;;9.57;100.00;98249.75;4769049;30;20056;-66
2024/02/09 08:19:01;;;;;;;5.15;2.38;;;;;;;9.62;100.00;98252.31;4767498;30;20056;-68
2024/02/09 08:21:50;;;;;;;6.32;2.22;;;;;;;9.67;100.00;98243.97;4782242;30;20043;-67
2024/02/09 08:24:38;;;;;;;7.68;2.85;;;;;;;9.64;100.00;98250.03;4768740;30;20165;-67
2024/02/09 08:27:27;;;;;;;6.32;2.55;;;;;;;9.59;100.00;98252.94;4770135;30;20052;-66
2024/02/09 08:30:15;;;;;;;2.75;1.67;;;;;;;9.73;100.00;98250.81;4766144;30;20134;-66
2024/02/09 08:33:03;;;;;;;6.22;2.20;;;;;;;9.72;100.00;98262.81;4768366;30;20071;-67
2024/02/09 08:35:51;;;;;;;5.80;2.58;;;;;;;9.63;100.00;98256.59;4755972;30;20486;-67
2024/02/09 08:38:39;;;;;;;5.32;2.35;;;;;;;9.67;100.00;98260.28;4756087;30;20468;-66
2024/02/09 08:41:27;;;;;;;6.05;2.08;;;;;;;9.77;100.00;98253.69;4767243;30;20048;-66
2024/02/09 08:44:15;;;;;;;5.80;2.22;;;;;;;9.90;100.00;98254.59;4777058;30;20057;-65
2024/02/09 08:47:04;;;;;;;6.80;2.47;;;;;;;9.85;100.00;98254.78;4787262;30;20439;-66
2024/02/09 08:49:52;;;;;;;5.28;2.50;;;;;;;9.79;100.00;98260.41;4776578;29;20161;-66
2024/02/09 08:52:42;;;;;;;9.90;2.50;;;;;;;9.82;100.00;98256.22;4767813;30;20055;-67
2024/02/09 08:55:30;;;;;;;6.90;2.67;;;;;;;9.81;100.00;98257.31;4767909;30;20073;-66
2024/02/09 08:58:20;;;;;;;4.85;2.45;;;;;;;9.87;100.00;98258.75;4768383;30;20055;-66
2024/02/09 09:01:09;;;;;;;5.32;2.42;;;;;;;9.84;100.00;98253.97;4767945;30;20059;-66
2024/02/09 09:03:57;;;;;;;6.55;2.20;;;;;;;9.80;100.00;98253.03;4768483;30;20518;-66
2024/02/09 09:06:45;;;;;;;6.93;2.67;;;;;;;9.88;100.00;98262.28;4768768;30;20957;-66
2024/02/09 09:09:33;;;;;;;7.25;2.70;;;;;;;9.90;100.00;98263.53;4762259;29;20109;-69
2024/02/09 09:12:22;;;;;;;8.23;2.67;;;;;;;9.95;100.00;98270.72;4750641;30;20110;-67
2024/02/09 09:15:10;;;;;;;8.52;2.25;;;;;;;9.91;100.00;98262.44;4752368;30;20056;-67
2024/02/09 09:17:58;;;;;;;5.78;2.05;;;;;;;9.89;100.00;98266.59;4765970;30;20113;-67
2024/02/09 09:20:47;;;;;;;4.88;2.13;;;;;;;9.91;100.00;98272.50;4766683;30;20130;-67
2024/02/09 09:23:34;;;;;;;4.97;2.25;;;;;;;9.87;100.00;98268.84;4742502;30;20079;-68
2024/02/09 09:26:22;;;;;;;8.18;2.80;;;;;;;9.89;100.00;98267.41;4767314;30;20336;-67
2024/02/09 09:29:16;;;;;;;9.32;2.72;;;;;;;9.94;100.00;98266.41;4767856;30;20051;-67
2024/02/09 09:32:05;;;;;;;4.32;2.33;;;;;;;9.97;100.00;98271.19;4768056;30;20051;-67
2024/02/09 09:34:53;;;;;;;9.50;2.72;;;;;;;9.96;100.00;98273.13;4754995;30;20194;-66
2024/02/09 09:37:44;;;;;;;6.57;2.55;;;;;;;10.02;100.00;98273.72;4768140;30;20043;-64
2024/02/09 09:40:35;;;;;;;8.38;2.58;;;;;;;10.07;100.00;98273.53;4754204;30;20076;-68
2024/02/09 09:43:24;;;;;;;7.03;2.70;;;;;;;10.07;100.00;98270.03;4763831;30;20064;-64
2024/02/09 09:46:13;;;;;;;8.27;2.35;;;;;;;10.05;100.00;98275.78;4759433;30;20131;-66
2024/02/09 09:49:03;;;;;;;6.18;2.60;;;;;;;10.00;100.00;98274.03;4770292;30;20059;-67
2024/02/09 09:51:52;;;;;;;7.95;2.50;;;;;;;10.05;100.00;98280.44;4779171;30;20062;-63
2024/02/09 09:54:41;;;;;;;5.72;2.40;;;;;;;10.02;100.00;98282.69;4779886;30;20052;-65
2024/02/09 09:57:30;;;;;;;5.00;2.50;;;;;;;10.07;100.00;98281.72;4759129;30;20105;-67
2024/02/09 10:00:20;;;;;;;10.48;2.63;;;;;;;10.10;100.00;98286.50;4761107;30;20040;-66
2024/02/09 10:03:08;;;;;;;9.20;2.65;;;;;;;10.09;100.00;98292.28;4773026;30;20099;-66
2024/02/09 10:05:56;;;;;;;6.22;2.58;;;;;;;10.11;100.00;98288.09;4765879;30;20087;-66
2024/02/09 10:08:46;;;;;;;6.55;1.98;;;;;;;10.12;100.00;98297.84;4768246;30;20043;-67
2024/02/09 10:11:37;;;;;;;6.50;2.08;;;;;;;10.19;100.00;98281.81;4766679;30;20052;-67
2024/02/09 10:14:26;;;;;;;6.45;2.33;;;;;;;10.26;100.00;98292.19;4753673;30;20055;-66
2024/02/09 10:17:15;;;;;;;8.50;2.60;;;;;;;10.60;100.00;98291.22;4756408;30;20082;-67
2024/02/09 10:20:04;;;;;;;8.70;2.60;;;;;;;10.51;100.00;98292.38;4746244;30;20055;-66
2024/02/09 10:22:52;;;;;;;6.75;2.80;;;;;;;10.36;100.00;98283.66;4771797;30;20565;-66
2024/02/09 10:25:42;;;;;;;5.25;2.30;;;;;;;10.39;100.00;98298.53;4769378;30;20059;-65
2024/02/09 10:28:33;;;;;;;10.32;2.97;;;;;;;10.41;100.00;98294.38;4770857;30;20148;-65
2024/02/09 10:31:22;;;;;;;7.47;2.65;;;;;;;10.46;100.00;98301.53;4771500;30;20457;-65
2024/02/09 10:34:12;;;;;;;6.20;1.30;;;;;;;10.52;100.00;98300.25;4770406;30;20048;-65
2024/02/09 10:37:02;;;;;;;12.73;3.63;;;;;;;10.81;100.00;98301.34;4768798;30;20048;-66
2024/02/09 10:39:55;;;;;;;8.63;3.23;;;;;;;10.57;100.00;98301.97;4763328;30;20051;-66
2024/02/09 10:42:46;;;;;;;17.35;4.68;;;;;;;10.53;100.00;98301.81;4757229;30;20043;-65
2024/02/09 10:45:36;;;;;;;16.48;4.70;;;;;;;10.54;100.00;98297.19;4772901;30;20382;-67
2024/02/09 10:48:43;;;;;;;13.10;4.07;;;;;;;10.45;100.00;98305.41;4770339;30;20055;-66
2024/02/09 10:51:35;;;;;;;27.63;6.00;;;;;;;10.52;100.00;98308.41;4757453;30;20052;-67
2024/02/09 10:54:24;;;;;;;19.70;5.05;;;;;;;10.48;100.00;98299.28;4770734;30;20406;-67
2024/02/09 10:57:12;;;;;;;10.05;3.58;;;;;;;10.32;100.00;98311.88;4758557;30;20123;-67
2024/02/09 11:00:04;;;;;;;9.30;3.13;;;;;;;10.26;100.00;98318.59;4768230;30;20495;-67
2024/02/09 11:02:52;;;;;;;9.40;3.20;;;;;;;10.24;100.00;98321.66;4759708;30;20116;-67
2024/02/09 11:05:43;;;;;;;6.88;2.90;;;;;;;10.22;100.00;98313.00;4774858;30;20047;-67
2024/02/09 11:08:35;;;;;;;15.60;4.10;;;;;;;10.21;100.00;98325.03;4774993;30;20497;-67
2024/02/09 11:11:27;;;;;;;11.57;3.78;;;;;;;10.22;100.00;98330.16;4779241;30;20111;-67
2024/02/09 11:14:15;;;;;;;11.25;3.53;;;;;;;10.22;100.00;98319.28;4784362;30;20048;-67
2024/02/09 11:17:08;;;;;;;8.73;3.22;;;;;;;10.27;100.00;98325.63;4758808;30;20245;-67
2024/02/09 11:19:56;;;;;;;9.48;3.63;;;;;;;10.30;100.00;98322.31;4790142;30;20070;-68
2024/02/09 11:22:47;;;;;;;15.40;4.97;;;;;;;10.32;100.00;98314.59;4781923;30;20097;-67
2024/02/09 11:25:35;;;;;;;15.50;5.18;;;;;;;10.39;100.00;98323.88;4773548;30;20047;-66
2024/02/09 11:28:23;;;;;;;13.75;4.50;;;;;;;10.42;100.00;98322.41;4759975;30;20067;-67
2024/02/09 11:31:11;;;;;;;17.60;7.07;;;;;;;10.54;100.00;98317.03;4784060;30;20079;-67
2024/02/09 11:34:01;;;;;;;37.72;15.07;;;;;;;10.54;100.00;98327.94;4757475;30;20490;-67
2024/02/09 11:36:49;;;;;;;12.15;4.85;;;;;;;10.53;100.00;98326.31;4756356;30;20059;-67
2024/02/09 11:39:38;;;;;;;37.35;14.13;;;;;;;10.56;100.00;98322.97;4100218;30;10000647;-67
2024/02/09 11:42:27;;;;;;;14.80;5.50;;;;;;;10.56;100.00;98322.97;4769928;30;20494;-68
2024/02/09 11:45:22;;;;;;;16.88;5.18;;;;;;;10.57;100.00;98321.81;4754737;30;20048;-67
2024/02/09 11:48:12;;;;;;;11.77;3.85;;;;;;;10.56;100.00;98317.53;4760637;30;20065;-69
2024/02/09 11:51:00;;;;;;;21.75;7.55;;;;;;;10.58;100.00;98323.44;4770760;30;20051;-68
2024/02/09 11:53:52;;;;;;;14.02;4.45;;;;;;;10.61;100.00;98320.06;4769836;30;20056;-67
2024/02/09 11:56:42;;;;;;;17.35;7.93;;;;;;;10.68;100.00;98329.59;4769976;30;20512;-65
2024/02/09 11:59:32;;;;;;;41.15;16.77;;;;;;;10.72;100.00;98320.44;4766919;30;20056;-67
2024/02/09 12:02:21;;;;;;;15.38;6.10;;;;;;;10.69;100.00;98336.66;4751438;30;20052;-66
2024/02/09 12:05:09;;;;;;;16.70;6.82;;;;;;;10.65;100.00;98328.34;4764802;30;20133;-67
2024/02/09 12:07:58;;;;;;;9.80;3.38;;;;;;;10.58;100.00;98328.88;4769082;30;20082;-68
2024/02/09 12:10:46;;;;;;;9.35;3.03;;;;;;;10.54;100.00;98332.59;4769560;30;20448;-68
2024/02/09 12:13:34;;;;;;;10.38;3.42;;;;;;;10.49;100.00;98339.03;4769719;30;20071;-68
2024/02/09 12:16:22;;;;;;;10.57;3.70;;;;;;;10.47;100.00;98338.56;4752359;30;20514;-68
2024/02/09 12:19:10;;;;;;;8.27;2.95;;;;;;;10.45;100.00;98333.41;4766623;30;20581;-68
2024/02/09 12:22:00;;;;;;;12.02;3.65;;;;;;;10.49;100.00;98335.50;4769845;30;20052;-68
2024/02/09 12:24:51;;;;;;;14.02;5.45;;;;;;;10.51;100.00;98334.06;4763656;30;20052;-67
2024/02/09 12:27:39;;;;;;;18.10;6.53;;;;;;;10.55;100.00;98334.97;4751024;30;20123;-69
2024/02/09 12:30:28;;;;;;;13.40;5.22;;;;;;;10.58;100.00;98337.06;4766548;30;20075;-68
2024/02/09 12:33:20;;;;;;;12.40;4.32;;;;;;;10.58;100.00;98339.78;4758933;30;20052;-69
2024/02/09 12:36:14;;;;;;;16.40;6.25;;;;;;;10.62;100.00;98343.41;4757519;30;20067;-69
2024/02/09 12:39:07;;;;;;;21.60;8.35;;;;;;;10.66;100.00;98341.63;4750515;30;20131;-68
2024/02/09 12:42:00;;;;;;;13.80;5.93;;;;;;;10.66;100.00;98338.13;4763310;30;20055;-69
2024/02/09 12:44:51;;;;;;;16.55;6.57;;;;;;;10.66;100.00;98338.91;4761990;30;20041;-67
2024/02/09 12:47:42;;;;;;;21.00;8.75;;;;;;;10.68;100.00;98341.31;4754070;30;20427;-69
2024/02/09 12:50:31;;;;;;;19.88;8.00;;;;;;;10.71;100.00;98343.38;4768922;30;20413;-69
2024/02/09 12:53:19;;;;;;;17.95;8.05;;;;;;;10.74;100.00;98336.47;4770555;30;20047;-68
2024/02/09 12:56:09;;;;;;;27.50;11.45;;;;;;;10.79;100.00;98337.06;4769513;29;20048;-67
2024/02/09 12:58:57;;;;;;;22.80;9.27;;;;;;;10.81;100.00;98334.81;4768919;30;20056;-68
2024/02/09 13:01:46;;;;;;;27.85;12.65;;;;;;;10.83;100.00;98345.38;4756478;30;20066;-68
2024/02/09 13:04:34;;;;;;;20.42;9.60;;;;;;;10.83;100.00;98339.94;4762149;30;20580;-67
2024/02/09 13:07:22;;;;;;;16.48;7.57;;;;;;;10.86;100.00;98336.56;4766068;30;20518;-68
2024/02/09 13:10:12;;;;;;;16.35;7.28;;;;;;;10.83;100.00;98331.78;4756637;30;20060;-68
2024/02/09 13:13:08;;;;;;;18.70;8.43;;;;;;;10.85;100.00;98340.41;4757403;30;20051;-68
2024/02/09 13:15:56;;;;;;;19.48;8.23;;;;;;;10.81;100.00;98334.81;4768378;30;20062;-69
2024/02/09 13:18:44;;;;;;;15.02;6.35;;;;;;;10.85;100.00;98330.31;4768217;30;20048;-68
2024/02/09 13:21:32;;;;;;;20.17;9.48;;;;;;;10.86;100.00;98345.50;4755445;30;20066;-67
2024/02/09 13:24:21;;;;;;;24.35;10.00;;;;;;;10.89;100.00;98335.88;4750134;30;20071;-67
2024/02/09 13:27:12;;;;;;;23.70;10.07;;;;;;;10.88;100.00;98337.81;4762207;29;20059;-69
2024/02/09 13:30:02;;;;;;;26.95;11.73;;;;;;;11.05;100.00;98336.09;4751948;30;20055;-68
2024/02/09 13:32:50;;;;;;;19.48;8.43;;;;;;;11.07;100.00;98337.34;4768762;30;20066;-67
2024/02/09 13:35:40;;;;;;;27.42;12.10;;;;;;;11.14;100.00;98336.03;4755654;30;20102;-68
2024/02/09 13:38:30;;;;;;;24.17;10.60;;;;;;;11.16;100.00;98339.22;4749174;30;20051;-66
2024/02/09 13:41:19;;;;;;;24.88;10.90;;;;;;;11.13;100.00;98335.22;4743306;30;20201;-69
2024/02/09 13:44:17;;;;;;;18.65;7.30;;;;;;;11.10;100.00;98338.63;5108408;27;1315226;-68
2024/02/09 13:47:05;;;;;;;29.80;14.02;;;;;;;11.09;100.00;98339.75;5133710;27;20063;-67
2024/02/09 13:49:53;;;;;;;25.15;11.27;;;;;;;11.13;100.00;98328.97;5136252;27;20082;-66
2024/02/09 13:52:45;;;;;;;20.73;9.43;;;;;;;11.08;100.00;98329.97;5111311;28;20066;-66
2024/02/09 13:55:36;;;;;;;29.83;12.30;;;;;;;11.11;100.00;98320.34;5106526;28;20044;-67
2024/02/09 13:58:26;;;;;;;16.83;8.43;;;;;;;11.11;100.00;98337.47;5127573;27;20055;-67
2024/02/09 14:01:15;;;;;;;16.23;7.97;;;;;;;11.09;100.00;98334.31;5143290;28;20051;-63
2024/02/09 14:04:05;;;;;;;15.77;6.28;;;;;;;11.11;100.00;98337.47;5127114;28;20052;-66
2024/02/09 14:06:53;;;;;;;15.50;6.60;;;;;;;11.16;100.00;98328.31;5116307;28;20054;-66
2024/02/09 14:09:41;;;;;;;14.63;6.63;;;;;;;11.18;100.00;98336.94;5113511;28;20416;-66
2024/02/09 14:12:29;;;;;;;12.25;5.68;;;;;;;11.17;100.00;98329.91;5122926;28;20055;-67
2024/02/09 14:15:17;;;;;;;14.70;5.32;;;;;;;11.19;100.00;98328.44;5132142;28;20109;-67
2024/02/09 14:18:06;;;;;;;12.68;5.30;;;;;;;11.17;100.00;98327.19;5118831;28;20134;-67
2024/02/09 14:20:54;;;;;;;23.08;10.93;;;;;;;11.18;100.00;98317.88;5133851;28;20055;-67
2024/02/09 14:23:42;;;;;;;20.85;9.02;;;;;;;11.22;100.00;98316.09;5123099;27;20163;-67
2024/02/09 14:26:30;;;;;;;33.05;15.27;;;;;;;11.29;100.00;98328.03;5125551;28;20128;-64
2024/02/09 14:29:17;;;;;;;24.42;10.50;;;;;;;11.81;100.00;98321.28;5088359;28;20040;-66
2024/02/09 14:32:07;;;;;;;19.10;7.72;;;;;;;11.64;100.00;98321.47;5125070;28;20054;-67
2024/02/09 14:34:55;;;;;;;20.48;8.35;;;;;;;11.46;100.00;98327.09;5105284;28;20032;-67
2024/02/09 14:37:45;;;;;;;21.33;8.57;;;;;;;11.80;100.00;98316.16;5106429;28;20039;-66
2024/02/09 14:40:34;;;;;;;15.80;6.65;;;;;;;11.63;100.00;98326.13;5109488;28;20105;-67
2024/02/09 14:43:22;;;;;;;15.93;7.72;;;;;;;11.48;100.00;98333.00;5125256;28;20056;-67
2024/02/09 14:46:10;;;;;;;18.88;8.70;;;;;;;11.65;100.00;98326.59;5096417;28;20435;-67
2024/02/09 14:48:58;;;;;;;20.83;8.15;;;;;;;11.59;100.00;98327.13;5121175;27;20487;-66
2024/02/09 14:51:46;;;;;;;19.83;8.77;;;;;;;11.45;100.00;98335.63;5127128;27;20126;-66
2024/02/09 14:54:38;;;;;;;15.57;7.10;;;;;;;11.45;100.00;98335.63;5104156;28;20062;-67